createdAt,value
2022-12-27T00:00:52.269Z,7.72
2022-12-27T00:03:19.044Z,7.93
2022-12-27T00:05:46.583Z,7.86
2022-12-27T00:08:13.317Z,7.90
2022-12-27T00:10:40.589Z,7.87
2022-12-27T00:13:07.019Z,7.89
2022-12-27T00:15:34.609Z,7.99
2022-12-27T00:18:01.048Z,8.02
2022-12-27T00:20:27.530Z,8.05
2022-12-27T00:22:53.929Z,7.85
2022-12-27T00:25:20.339Z,7.75
2022-12-27T00:27:47.039Z,7.81
2022-12-27T00:30:13.642Z,7.84
2022-12-27T00:32:40.078Z,7.72
2022-12-27T00:35:06.791Z,7.31
2022-12-27T00:37:33.200Z,7.77
2022-12-27T00:39:59.662Z,7.73
2022-12-27T00:42:26.095Z,7.20
2022-12-27T00:44:52.556Z,7.38
2022-12-27T00:47:18.984Z,7.32
2022-12-27T00:49:45.384Z,7.38
2022-12-27T00:52:11.864Z,7.31
2022-12-27T00:54:38.578Z,7.41
2022-12-27T00:57:05.064Z,7.46
2022-12-27T00:59:31.556Z,7.51
2022-12-27T01:01:58.223Z,7.64
2022-12-27T01:04:24.727Z,7.46
2022-12-27T01:06:51.336Z,7.45
2022-12-27T01:09:17.746Z,7.30
2022-12-27T01:11:44.193Z,7.22
2022-12-27T01:14:10.673Z,7.03
2022-12-27T01:16:37.782Z,6.90
2022-12-27T01:19:04.309Z,6.92
2022-12-27T01:21:31.115Z,6.96
2022-12-27T01:23:57.937Z,6.71
2022-12-27T01:26:24.633Z,6.63
2022-12-27T01:28:51.595Z,6.64
2022-12-27T01:31:19.762Z,6.60
2022-12-27T01:33:46.603Z,6.57
2022-12-27T01:36:20.950Z,6.50
2022-12-27T01:38:48.598Z,6.67
2022-12-27T01:41:41.649Z,6.70
2022-12-27T01:44:27.033Z,6.78
2022-12-27T01:46:53.547Z,6.76
2022-12-27T01:49:19.948Z,6.40
2022-12-27T01:51:46.466Z,6.57
2022-12-27T01:54:12.917Z,6.33
2022-12-27T01:56:39.377Z,6.40
2022-12-27T01:59:07.914Z,6.52
2022-12-27T02:01:38.391Z,6.69
2022-12-27T02:04:07.404Z,6.51
2022-12-27T02:06:34.715Z,6.42
2022-12-27T02:09:12.173Z,6.37
2022-12-27T02:11:51.346Z,6.46
2022-12-27T02:14:32.351Z,6.30
2022-12-27T02:17:00.210Z,6.21
2022-12-27T02:19:29.677Z,6.07
2022-12-27T02:22:04.957Z,6.15
2022-12-27T02:24:50.229Z,6.09
2022-12-27T02:27:32.211Z,5.94
2022-12-27T02:30:06.530Z,5.90
2022-12-27T02:32:45.275Z,5.87
2022-12-27T02:35:14.711Z,5.72
2022-12-27T02:37:59.944Z,5.80
2022-12-27T02:40:45.895Z,5.81
2022-12-27T02:43:31.186Z,5.78
2022-12-27T02:46:22.925Z,5.79
2022-12-27T02:49:11.739Z,5.67
2022-12-27T02:52:03.903Z,5.70
2022-12-27T02:54:39.915Z,5.90
2022-12-27T02:57:09.369Z,5.83
2022-12-27T03:00:02.037Z,5.87
2022-12-27T03:02:55.451Z,5.85
2022-12-27T03:06:19.350Z,6.01
2022-12-27T03:08:52.098Z,6.01
2022-12-27T03:11:37.383Z,6.06
2022-12-27T03:14:48.902Z,6.04
2022-12-27T03:17:21.355Z,5.87
2022-12-27T03:20:08.531Z,5.87
2022-12-27T03:22:54.186Z,5.89
2022-12-27T03:25:29.771Z,5.97
2022-12-27T03:28:19.341Z,5.93
2022-12-27T03:31:05.323Z,5.90
2022-12-27T03:33:32.218Z,6.06
2022-12-27T03:36:28.679Z,6.22
2022-12-27T03:38:58.336Z,5.98
2022-12-27T03:41:46.071Z,6.16
2022-12-27T03:44:24.747Z,6.21
2022-12-27T03:46:56.396Z,5.84
2022-12-27T03:49:35.133Z,5.82
2022-12-27T03:52:11.042Z,5.82
2022-12-27T03:54:39.032Z,5.61
2022-12-27T03:57:06.815Z,5.71
2022-12-27T03:59:33.678Z,5.75
2022-12-27T04:02:01.019Z,5.76
2022-12-27T04:04:27.748Z,5.65
2022-12-27T04:06:54.206Z,5.65
2022-12-27T04:09:39.409Z,5.65
2022-12-27T04:12:24.618Z,5.13
2022-12-27T04:15:09.898Z,4.61
2022-12-27T04:17:55.133Z,4.58
2022-12-27T04:20:40.812Z,4.58
2022-12-27T04:23:25.902Z,4.69
2022-12-27T04:26:11.199Z,4.26
2022-12-27T04:28:56.150Z,4.55
2022-12-27T04:31:41.543Z,3.83
2022-12-27T04:34:26.916Z,3.74
2022-12-27T04:36:53.317Z,3.98
2022-12-27T04:39:19.813Z,3.81
2022-12-27T04:42:05.223Z,3.89
2022-12-27T04:44:50.463Z,4.11
2022-12-27T04:47:37.388Z,3.51
2022-12-27T04:50:23.053Z,4.04
2022-12-27T04:53:08.325Z,3.92
2022-12-27T04:55:34.847Z,3.66
2022-12-27T04:58:01.407Z,3.50
2022-12-27T05:00:48.310Z,3.57
2022-12-27T05:03:16.645Z,3.81
2022-12-27T05:05:43.811Z,4.09
2022-12-27T05:08:29.496Z,3.62
2022-12-27T05:11:14.842Z,3.90
2022-12-27T05:13:59.693Z,4.12
2022-12-27T05:16:29.230Z,4.24
2022-12-27T05:18:55.717Z,3.89
2022-12-27T05:21:22.250Z,3.60
2022-12-27T05:24:07.290Z,3.41
2022-12-27T05:26:34.177Z,3.29
2022-12-27T05:29:00.851Z,3.55
2022-12-27T05:31:28.429Z,3.57
2022-12-27T05:33:55.346Z,3.46
2022-12-27T05:36:22.250Z,3.38
2022-12-27T05:38:48.870Z,3.28
2022-12-27T05:41:15.678Z,3.04
2022-12-27T05:43:42.181Z,3.61
2022-12-27T05:46:10.439Z,3.34
2022-12-27T05:48:37.144Z,3.53
2022-12-27T05:51:21.982Z,3.96
2022-12-27T05:53:49.080Z,4.31
2022-12-27T05:56:17.073Z,4.26
2022-12-27T05:58:43.741Z,4.27
2022-12-27T06:01:11.782Z,3.90
2022-12-27T06:03:38.628Z,4.33
2022-12-27T06:06:07.766Z,4.72
2022-12-27T06:08:35.158Z,5.12
2022-12-27T06:11:02.833Z,5.05
2022-12-27T06:13:29.325Z,4.82
2022-12-27T06:15:57.618Z,4.86
2022-12-27T06:18:24.063Z,4.73
2022-12-27T06:20:50.738Z,5.11
2022-12-27T06:23:17.219Z,4.86
2022-12-27T06:25:43.619Z,4.90
2022-12-27T06:28:10.062Z,4.72
2022-12-27T06:30:36.666Z,4.20
2022-12-27T06:33:03.133Z,4.62
2022-12-27T06:35:29.598Z,4.62
2022-12-27T06:37:56.043Z,4.78
2022-12-27T06:40:22.477Z,4.99
2022-12-27T06:42:48.900Z,4.69
2022-12-27T06:45:15.308Z,4.59
2022-12-27T06:47:41.703Z,4.70
2022-12-27T06:50:08.511Z,4.77
2022-12-27T06:52:34.953Z,4.74
2022-12-27T06:55:01.424Z,4.86
2022-12-27T06:57:27.862Z,4.79
2022-12-27T06:59:54.363Z,4.64
2022-12-27T07:02:20.975Z,4.02
2022-12-27T07:04:47.488Z,4.00
2022-12-27T07:07:15.996Z,3.81
2022-12-27T07:09:42.632Z,3.61
2022-12-27T07:12:09.073Z,3.91
2022-12-27T07:14:35.619Z,3.74
2022-12-27T07:17:02.075Z,3.39
2022-12-27T07:19:28.492Z,3.88
2022-12-27T07:21:54.928Z,3.50
2022-12-27T07:24:21.328Z,3.78
2022-12-27T07:26:47.749Z,3.90
2022-12-27T07:29:14.295Z,3.99
2022-12-27T07:31:47.045Z,3.93
2022-12-27T07:34:13.510Z,3.94
2022-12-27T07:36:40.273Z,4.20
2022-12-27T07:39:07.841Z,4.29
2022-12-27T07:41:35.814Z,4.52
2022-12-27T07:44:03.541Z,4.56
2022-12-27T07:46:30.063Z,4.70
2022-12-27T07:48:57.369Z,4.36
2022-12-27T07:51:24.590Z,4.18
2022-12-27T07:53:51.464Z,4.27
2022-12-27T07:56:25.449Z,4.55
2022-12-27T07:58:53.181Z,4.72
2022-12-27T08:01:20.897Z,4.63
2022-12-27T08:03:47.623Z,4.63
2022-12-27T08:06:24.651Z,4.21
2022-12-27T08:08:51.953Z,4.32
2022-12-27T08:11:18.707Z,4.36
2022-12-27T08:13:45.145Z,4.06
2022-12-27T08:16:15.018Z,3.55
2022-12-27T08:18:41.529Z,4.15
2022-12-27T08:21:07.913Z,4.30
2022-12-27T08:23:34.354Z,4.36
2022-12-27T08:26:00.726Z,3.71
2022-12-27T08:28:31.449Z,3.19
2022-12-27T08:30:58.992Z,3.35
2022-12-27T08:33:25.626Z,3.72
2022-12-27T08:35:53.662Z,3.74
2022-12-27T08:38:20.821Z,3.58
2022-12-27T08:40:47.286Z,3.24
2022-12-27T08:43:14.247Z,3.84
2022-12-27T08:45:40.707Z,3.87
2022-12-27T08:48:07.442Z,3.97
2022-12-27T08:50:34.034Z,4.15
2022-12-27T08:53:01.839Z,4.24
2022-12-27T08:55:28.756Z,4.43
2022-12-27T08:58:09.237Z,4.46
2022-12-27T09:00:40.323Z,4.39
2022-12-27T09:03:06.749Z,4.28
2022-12-27T09:05:39.607Z,3.85
2022-12-27T09:08:08.042Z,4.00
2022-12-27T09:10:34.542Z,4.24
2022-12-27T09:13:00.981Z,4.09
2022-12-27T09:15:27.453Z,4.02
2022-12-27T09:17:53.900Z,4.40
2022-12-27T09:20:20.298Z,4.58
2022-12-27T09:22:46.712Z,4.44
2022-12-27T09:25:13.532Z,4.39
2022-12-27T09:27:39.939Z,4.20
2022-12-27T09:30:08.227Z,4.16
2022-12-27T09:32:34.704Z,4.43
2022-12-27T09:35:02.122Z,4.58
2022-12-27T09:37:28.626Z,4.66
2022-12-27T09:39:55.072Z,4.13
2022-12-27T09:45:17.653Z,4.48
2022-12-27T09:48:04.366Z,4.47
2022-12-27T09:50:33.421Z,4.35
2022-12-27T09:53:14.075Z,4.64
2022-12-27T09:55:43.460Z,4.71
2022-12-27T09:58:19.009Z,4.49
2022-12-27T10:00:46.477Z,4.56
2022-12-27T10:03:13.171Z,4.56
2022-12-27T10:05:43.126Z,4.54
2022-12-27T10:08:14.364Z,4.77
2022-12-27T10:10:59.659Z,4.90
2022-12-27T10:13:39.211Z,4.93
2022-12-27T10:16:11.963Z,5.02
2022-12-27T10:18:55.147Z,5.00
2022-12-27T10:21:23.760Z,4.96
2022-12-27T10:23:54.466Z,5.03
2022-12-27T10:26:21.508Z,4.81
2022-12-27T10:28:57.353Z,4.95
2022-12-27T10:31:25.315Z,4.98
2022-12-27T10:33:52.420Z,5.02
2022-12-27T10:36:21.007Z,5.12
2022-12-27T10:38:47.457Z,5.06
2022-12-27T10:41:24.626Z,5.13
2022-12-27T10:43:52.155Z,5.04
2022-12-27T10:46:20.894Z,5.36
2022-12-27T10:49:20.065Z,5.59
2022-12-27T10:51:41.462Z,5.37
2022-12-27T10:54:21.027Z,5.38
2022-12-27T10:56:47.591Z,5.66
2022-12-27T10:59:16.849Z,5.69
2022-12-27T11:01:48.191Z,5.69
2022-12-27T11:04:20.592Z,5.63
2022-12-27T11:06:51.933Z,5.65
2022-12-27T11:09:18.767Z,5.53
2022-12-27T11:11:45.166Z,5.60
2022-12-27T11:14:15.903Z,5.66
2022-12-27T11:16:43.353Z,5.94
2022-12-27T11:19:19.252Z,5.93
2022-12-27T11:21:45.692Z,5.92
2022-12-27T11:24:15.479Z,5.90
2022-12-27T11:26:53.698Z,5.87
2022-12-27T11:29:22.710Z,6.01
2022-12-27T11:31:49.817Z,5.86
2022-12-27T11:34:18.187Z,5.86
2022-12-27T11:36:47.794Z,6.00
2022-12-27T11:39:32.933Z,6.05
2022-12-27T11:42:00.607Z,6.02
2022-12-27T11:44:28.233Z,6.04
2022-12-27T11:46:59.002Z,6.05
2022-12-27T11:49:28.875Z,6.21
2022-12-27T11:51:55.344Z,6.25
2022-12-27T11:54:39.967Z,6.25
2022-12-27T11:57:29.164Z,6.46
2022-12-27T12:00:05.768Z,6.61
2022-12-27T12:02:39.293Z,6.47
2022-12-27T12:05:21.619Z,6.72
2022-12-27T12:07:54.186Z,6.72
2022-12-27T12:10:23.990Z,6.63
2022-12-27T12:13:05.743Z,6.52
2022-12-27T12:15:35.141Z,6.72
2022-12-27T12:18:01.516Z,6.84
2022-12-27T12:20:50.361Z,6.77
2022-12-27T12:23:17.244Z,7.05
2022-12-27T12:25:52.898Z,6.95
2022-12-27T12:28:56.863Z,6.90
2022-12-27T12:31:20.758Z,6.75
2022-12-27T12:33:56.443Z,6.95
2022-12-27T12:36:26.643Z,6.90
2022-12-27T12:38:56.010Z,7.00
2022-12-27T12:41:32.513Z,6.72
2022-12-27T12:44:25.501Z,6.78
2022-12-27T12:47:11.003Z,6.72
2022-12-27T12:49:49.698Z,6.76
2022-12-27T12:52:19.305Z,6.81
2022-12-27T12:54:48.482Z,6.62
2022-12-27T12:57:20.836Z,6.81
2022-12-27T12:59:49.223Z,6.67
2022-12-27T13:02:18.816Z,6.70
2022-12-27T13:04:57.632Z,6.90
2022-12-27T13:07:51.936Z,7.22
2022-12-27T13:10:18.340Z,6.94
2022-12-27T13:12:57.804Z,7.18
2022-12-27T13:15:36.428Z,7.39
2022-12-27T13:18:16.405Z,7.02
2022-12-27T13:20:48.963Z,7.11
2022-12-27T13:23:37.358Z,6.95
2022-12-27T13:26:27.101Z,7.08
2022-12-27T13:28:56.505Z,7.13
2022-12-27T13:31:35.657Z,7.19
2022-12-27T13:34:05.298Z,7.14
2022-12-27T13:36:34.860Z,6.84
2022-12-27T13:39:10.731Z,6.67
2022-12-27T13:41:46.907Z,6.80
2022-12-27T13:44:32.376Z,6.81
2022-12-27T13:47:27.118Z,6.96
2022-12-27T13:50:14.601Z,7.21
2022-12-27T13:52:44.163Z,7.12
2022-12-27T13:55:26.640Z,7.13
2022-12-27T13:58:11.932Z,7.23
2022-12-27T14:00:48.156Z,7.31
2022-12-27T14:03:31.555Z,7.45
2022-12-27T14:06:14.464Z,7.42
2022-12-27T14:08:46.966Z,7.49
2022-12-27T14:11:31.539Z,7.53
2022-12-27T14:13:58.817Z,7.53
2022-12-27T14:16:36.455Z,7.67
2022-12-27T14:19:12.352Z,7.34
2022-12-27T14:21:46.742Z,7.43
2022-12-27T14:24:28.376Z,7.43
2022-12-27T14:27:14.184Z,7.39
2022-12-27T14:29:46.679Z,7.43
2022-12-27T14:32:16.042Z,7.33
2022-12-27T14:34:59.175Z,7.35
2022-12-27T14:37:32.092Z,7.25
2022-12-27T14:40:17.447Z,7.24
2022-12-27T14:42:43.819Z,7.19
2022-12-27T14:45:29.266Z,7.04
2022-12-27T14:48:14.618Z,7.09
2022-12-27T14:50:59.843Z,6.68
2022-12-27T14:53:49.595Z,6.70
2022-12-27T14:56:22.383Z,6.58
2022-12-27T14:59:10.698Z,6.53
2022-12-27T15:01:49.465Z,6.60
2022-12-27T15:04:31.090Z,6.73
2022-12-27T15:07:20.379Z,6.74
2022-12-27T15:09:46.797Z,6.38
2022-12-27T15:12:13.216Z,6.65
2022-12-27T15:14:53.973Z,6.03
2022-12-27T15:17:40.152Z,6.15
2022-12-27T15:20:09.613Z,5.91
2022-12-27T15:22:36.013Z,5.82
2022-12-27T15:25:21.142Z,5.94
2022-12-27T15:27:53.864Z,6.27
2022-12-27T15:30:23.988Z,5.73
2022-12-27T15:33:17.268Z,5.73
2022-12-27T15:35:54.727Z,5.97
2022-12-27T15:38:41.156Z,6.42
2022-12-27T15:41:07.577Z,6.12
2022-12-27T15:43:46.307Z,5.99
2022-12-27T15:46:36.356Z,6.18
2022-12-27T15:49:22.030Z,5.93
2022-12-27T15:52:00.628Z,5.98
2022-12-27T15:54:33.630Z,5.88
2022-12-27T15:57:03.107Z,5.87
2022-12-27T15:59:32.556Z,5.88
2022-12-27T16:02:17.449Z,5.78
2022-12-27T16:04:51.963Z,5.87
2022-12-27T16:07:36.988Z,6.08
2022-12-27T16:10:22.199Z,6.15
2022-12-27T16:12:49.346Z,6.01
2022-12-27T16:15:33.955Z,5.73
2022-12-27T16:18:01.320Z,6.22
2022-12-27T16:20:28.459Z,6.28
2022-12-27T16:22:59.809Z,6.25
2022-12-27T16:25:30.944Z,6.39
2022-12-27T16:28:00.149Z,5.87
2022-12-27T16:30:37.933Z,5.50
2022-12-27T16:33:05.054Z,5.91
2022-12-27T16:35:32.374Z,5.71
2022-12-27T16:38:03.697Z,5.69
2022-12-27T16:40:37.308Z,6.00
2022-12-27T16:43:09.900Z,6.07
2022-12-27T16:45:36.302Z,5.93
2022-12-27T16:48:11.774Z,5.34
2022-12-27T16:50:41.164Z,5.25
2022-12-27T16:53:16.451Z,5.40
2022-12-27T16:55:42.982Z,5.61
2022-12-27T16:58:18.510Z,5.79
2022-12-27T17:00:46.438Z,6.05
2022-12-27T17:03:20.889Z,5.98
2022-12-27T17:06:30.119Z,5.74
2022-12-27T17:08:38.711Z,5.76
2022-12-27T17:11:24.859Z,5.67
2022-12-27T17:14:02.055Z,5.82
2022-12-27T17:16:32.131Z,5.64
2022-12-27T17:18:58.535Z,5.89
2022-12-27T17:21:33.862Z,5.51
2022-12-27T17:24:11.189Z,5.39
2022-12-27T17:26:56.410Z,5.34
2022-12-27T17:29:38.202Z,5.53
2022-12-27T17:32:07.832Z,5.30
2022-12-27T17:34:52.662Z,5.19
2022-12-27T17:37:30.322Z,5.21
2022-12-27T17:40:02.801Z,5.33
2022-12-27T17:42:54.876Z,5.05
2022-12-27T17:45:40.018Z,5.40
2022-12-27T17:48:09.566Z,5.53
2022-12-27T17:50:36.914Z,5.40
2022-12-27T17:53:31.262Z,5.22
2022-12-27T17:56:19.616Z,5.28
2022-12-27T17:58:46.186Z,4.62
2022-12-27T18:01:13.284Z,4.81
2022-12-27T18:03:42.828Z,4.97
2022-12-27T18:06:09.380Z,5.10
2022-12-27T18:08:36.961Z,5.16
2022-12-27T18:11:05.237Z,4.98
2022-12-27T18:13:35.822Z,5.06
2022-12-27T18:16:05.976Z,5.11
2022-12-27T18:18:34.067Z,4.98
2022-12-27T18:21:04.529Z,5.07
2022-12-27T18:23:52.678Z,4.16
2022-12-27T18:26:20.382Z,4.01
2022-12-27T18:28:48.051Z,3.57
2022-12-27T18:31:21.384Z,3.98
2022-12-27T18:33:57.341Z,4.36
2022-12-27T18:36:27.585Z,4.09
2022-12-27T18:39:00.033Z,4.63
2022-12-27T18:41:27.769Z,4.84
2022-12-27T18:44:00.848Z,4.92
2022-12-27T18:46:27.234Z,4.90
2022-12-27T18:48:53.970Z,4.97
2022-12-27T18:51:20.582Z,4.86
2022-12-27T18:53:47.149Z,4.87
2022-12-27T18:56:13.562Z,4.76
2022-12-27T18:58:40.273Z,4.84
2022-12-27T19:01:26.774Z,4.53
2022-12-27T19:04:12.195Z,4.81
2022-12-27T19:06:38.627Z,4.74
2022-12-27T19:09:06.067Z,4.74
2022-12-27T19:11:36.335Z,4.71
2022-12-27T19:14:04.950Z,4.50
2022-12-27T19:16:34.321Z,4.48
2022-12-27T19:31:19.541Z,3.11
2022-12-27T19:33:57.864Z,3.07
2022-12-27T19:36:29.044Z,3.36
2022-12-27T19:39:00.034Z,3.64
2022-12-27T19:41:27.439Z,3.93
2022-12-27T19:43:56.779Z,4.03
2022-12-27T19:46:30.584Z,3.92
2022-12-27T19:51:44.367Z,3.97
2022-12-27T19:54:15.789Z,4.09
2022-12-27T19:56:42.331Z,4.39
2022-12-27T19:59:20.507Z,4.25
2022-12-27T20:01:47.163Z,4.29
2022-12-27T20:04:14.091Z,4.32
2022-12-27T20:06:41.223Z,4.48
2022-12-27T20:09:12.773Z,4.18
2022-12-27T20:11:39.273Z,4.41
2022-12-27T20:14:05.678Z,4.33
2022-12-27T20:16:32.214Z,3.43
2022-12-27T20:18:58.664Z,3.41
2022-12-27T20:21:25.085Z,3.34
2022-12-27T20:23:51.500Z,3.40
2022-12-27T20:26:19.933Z,3.65
2022-12-27T20:28:46.850Z,3.58
2022-12-27T20:31:14.462Z,3.66
2022-12-27T20:33:40.903Z,3.84
2022-12-27T20:36:07.778Z,3.54
2022-12-27T20:38:34.336Z,3.53
2022-12-27T20:41:08.587Z,3.45
2022-12-27T20:43:35.341Z,3.49
2022-12-27T20:46:05.848Z,3.69
2022-12-27T20:48:32.331Z,3.55
2022-12-27T20:50:58.928Z,3.65
2022-12-27T20:53:27.854Z,4.11
2022-12-27T20:55:58.166Z,4.34
2022-12-27T20:58:24.870Z,4.21
2022-12-27T21:00:51.713Z,4.29
2022-12-27T21:03:18.285Z,4.04
2022-12-27T21:05:44.788Z,4.21
2022-12-27T21:08:11.207Z,4.17
2022-12-27T21:10:37.691Z,3.95
2022-12-27T21:13:04.174Z,4.09
2022-12-27T21:15:31.339Z,4.23
2022-12-27T21:17:57.873Z,3.97
2022-12-27T21:20:24.296Z,3.84
2022-12-27T21:22:50.721Z,4.03
2022-12-27T21:25:17.137Z,4.04
2022-12-27T21:27:43.540Z,3.77
2022-12-27T21:30:10.722Z,3.74
2022-12-27T21:32:37.129Z,3.89
2022-12-27T21:35:03.571Z,3.74
2022-12-27T21:37:29.990Z,3.07
2022-12-27T21:39:56.357Z,3.16
2022-12-27T21:42:22.779Z,3.68
2022-12-27T21:44:49.199Z,3.73
2022-12-27T21:47:15.654Z,3.79
2022-12-27T21:49:42.064Z,3.91
2022-12-27T21:52:08.544Z,3.94
2022-12-27T21:54:35.232Z,3.77
2022-12-27T21:57:02.661Z,3.70
2022-12-27T21:59:29.108Z,3.77
2022-12-27T22:01:55.616Z,3.64
2022-12-27T22:04:22.178Z,3.31
2022-12-27T22:06:48.874Z,3.61
2022-12-27T22:09:15.664Z,3.69
2022-12-27T22:11:42.095Z,3.08
2022-12-27T22:14:08.941Z,3.14
2022-12-27T22:16:36.689Z,3.54
2022-12-27T22:19:05.396Z,3.13
2022-12-27T22:21:32.723Z,3.22
2022-12-27T22:24:00.592Z,3.55
2022-12-27T22:26:28.216Z,3.57
2022-12-27T22:28:54.658Z,3.30
2022-12-27T22:31:22.276Z,2.51
2022-12-27T22:33:51.298Z,2.58
2022-12-27T22:36:19.440Z,3.01
2022-12-27T22:38:49.533Z,3.40
2022-12-27T22:41:21.290Z,3.56
2022-12-27T22:43:52.048Z,3.57
2022-12-27T22:46:18.801Z,3.60
2022-12-27T22:48:48.952Z,3.42
2022-12-27T22:51:16.542Z,3.00
2022-12-27T22:53:43.126Z,3.37
2022-12-27T22:56:17.094Z,3.52
2022-12-27T22:58:43.585Z,3.30
2022-12-27T23:01:14.215Z,2.64
2022-12-27T23:03:41.057Z,3.11
2022-12-27T23:06:07.591Z,3.46
2022-12-27T23:08:34.017Z,3.36
2022-12-27T23:11:04.636Z,3.38
2022-12-27T23:13:31.030Z,3.36
2022-12-27T23:16:01.677Z,3.48
2022-12-27T23:18:28.540Z,3.38
2022-12-27T23:21:20.067Z,2.97
2022-12-27T23:23:41.716Z,2.57
2022-12-27T23:26:09.871Z,3.02
2022-12-27T23:28:37.146Z,2.87
2022-12-27T23:31:07.637Z,2.41
2022-12-27T23:33:34.168Z,2.33
2022-12-27T23:36:00.847Z,2.63
2022-12-27T23:38:27.632Z,2.43
2022-12-27T23:40:54.820Z,2.46
2022-12-27T23:43:51.171Z,2.47
2022-12-27T23:46:12.532Z,2.72
2022-12-27T23:48:39.307Z,2.22
2022-12-27T23:51:06.107Z,2.21
2022-12-27T23:53:32.547Z,2.36
2022-12-27T23:56:00.501Z,2.22
2022-12-27T23:58:27.054Z,2.37
